Time;durP1;ratioP1;P1;durP2;ratioP2;P2;SDS_P1;SDS_P2;PMS_P1;PMS_P2;Temp;Humidity;BMP_temperature;BMP_pressure;BME280_temperature;BME280_humidity;BME280_pressure;Samples;Min_cycle;Max_cycle;Signal;HPM_P1;HPM_P2
2021/01/17 00:02:11;;;;;;;41.33;15.53;;;;;;;-2.51;100.00;96365.94;5060002;28;20204;-71
2021/01/17 00:04:37;;;;;;;40.93;15.73;;;;;;;-2.35;100.00;96360.53;5059235;28;20242;-72
2021/01/17 00:07:03;;;;;;;41.97;15.73;;;;;;;-2.30;100.00;96352.50;5058870;28;20225;-72
2021/01/17 00:09:31;;;;;;;40.13;15.90;;;;;;;-2.32;100.00;96354.34;5060435;28;20220;-72
2021/01/17 00:11:57;;;;;;;39.90;14.77;;;;;;;-2.38;100.00;96345.25;5059144;28;20204;-71
2021/01/17 00:14:24;;;;;;;39.30;15.90;;;;;;;-2.20;100.00;96341.50;5059355;28;20726;-71
2021/01/17 00:16:50;;;;;;;40.90;16.43;;;;;;;-2.16;100.00;96335.22;5058673;28;20711;-72
2021/01/17 00:19:16;;;;;;;41.70;16.30;;;;;;;-2.10;100.00;96334.81;5059629;28;20284;-71
2021/01/17 00:21:45;;;;;;;46.07;17.23;;;;;;;-2.09;100.00;96333.06;5059400;28;20866;-72
2021/01/17 00:24:11;;;;;;;43.47;16.67;;;;;;;-2.25;100.00;96332.41;5059409;28;20206;-71
2021/01/17 00:26:38;;;;;;;41.33;16.40;;;;;;;-2.28;100.00;96335.16;5058399;28;20224;-72
2021/01/17 00:29:04;;;;;;;48.70;18.30;;;;;;;-2.24;100.00;96329.72;5058978;28;20192;-71
2021/01/17 00:31:34;;;;;;;43.47;16.63;;;;;;;-2.20;100.00;96322.59;5059559;28;20559;-72
2021/01/17 00:34:00;;;;;;;39.37;14.20;;;;;;;-2.14;100.00;96317.88;5058782;28;20674;-71
2021/01/17 00:36:26;;;;;;;45.60;16.80;;;;;;;-2.00;100.00;96310.03;5057998;28;20285;-72
2021/01/17 00:38:52;;;;;;;37.63;15.77;;;;;;;-2.03;100.00;96305.09;5059252;28;20212;-72
2021/01/17 00:41:18;;;;;;;44.47;17.30;;;;;;;-2.00;100.00;96299.72;5059197;28;20207;-72
2021/01/17 00:43:44;;;;;;;43.80;17.00;;;;;;;-1.93;100.00;96300.19;5059057;28;20572;-72
2021/01/17 00:46:10;;;;;;;47.70;18.57;;;;;;;-2.06;100.00;96287.25;5058135;28;20830;-72
2021/01/17 00:48:39;;;;;;;44.37;17.73;;;;;;;-2.19;100.00;96281.22;5059259;28;20239;-71
2021/01/17 00:51:05;;;;;;;47.27;18.20;;;;;;;-2.18;100.00;96280.28;5058904;28;20774;-71
2021/01/17 00:53:31;;;;;;;45.27;17.33;;;;;;;-2.05;100.00;96275.13;5058277;28;20273;-71
2021/01/17 00:55:57;;;;;;;48.03;17.90;;;;;;;-2.10;100.00;96261.72;5057881;28;20236;-72
2021/01/17 00:58:23;;;;;;;50.07;18.63;;;;;;;-2.04;100.00;96262.13;5059056;28;20254;-72
2021/01/17 01:00:49;;;;;;;47.40;16.73;;;;;;;-1.97;100.00;96258.22;5058803;28;20205;-72
2021/01/17 01:03:14;;;;;;;49.33;18.57;;;;;;;-2.10;100.00;96257.41;5058611;28;20258;-71
2021/01/17 01:05:41;;;;;;;47.27;18.03;;;;;;;-2.00;100.00;96249.84;5058092;28;20225;-71
2021/01/17 01:08:08;;;;;;;45.73;17.40;;;;;;;-2.00;100.00;96236.94;5058545;28;20199;-71
2021/01/17 01:10:34;;;;;;;45.37;17.77;;;;;;;-1.90;100.00;96235.41;5058135;28;20219;-71
2021/01/17 01:13:00;;;;;;;49.03;18.03;;;;;;;-1.99;100.00;96229.09;5058934;28;20202;-72
2021/01/17 01:15:26;;;;;;;51.00;18.33;;;;;;;-2.00;100.00;96232.59;5057950;28;20220;-71
2021/01/17 01:17:52;;;;;;;51.83;18.83;;;;;;;-1.87;100.00;96219.69;5058062;28;20200;-71
2021/01/17 01:20:18;;;;;;;54.77;20.63;;;;;;;-1.87;100.00;96217.13;5058835;28;20215;-72
2021/01/17 01:22:45;;;;;;;68.67;22.67;;;;;;;-1.86;100.00;96219.59;5058832;28;20212;-71
2021/01/17 01:25:12;;;;;;;91.83;27.30;;;;;;;-1.64;100.00;96215.47;5056976;28;20284;-71
2021/01/17 01:27:38;;;;;;;97.50;28.30;;;;;;;-1.61;100.00;96214.44;5057965;28;21076;-71
2021/01/17 01:30:06;;;;;;;117.23;32.93;;;;;;;-1.60;100.00;96219.50;5058249;28;20205;-72
2021/01/17 01:32:32;;;;;;;73.77;24.60;;;;;;;-1.74;100.00;96208.47;5057881;28;20216;-72
2021/01/17 01:34:57;;;;;;;61.50;21.43;;;;;;;-1.81;100.00;96205.47;5057882;28;20820;-71
2021/01/17 01:37:23;;;;;;;61.87;22.23;;;;;;;-1.63;100.00;96205.94;5057682;28;20616;-71
2021/01/17 01:39:50;;;;;;;70.93;24.40;;;;;;;-1.51;100.00;96203.34;5058238;28;21036;-72
2021/01/17 01:42:16;;;;;;;89.47;29.80;;;;;;;-1.54;100.00;96195.84;5058223;28;20207;-72
2021/01/17 01:44:42;;;;;;;78.93;26.43;;;;;;;-1.43;100.00;96202.84;5057682;28;20933;-72
2021/01/17 01:47:14;;;;;;;60.53;22.20;;;;;;;-1.48;100.00;96194.56;5057350;28;20663;-71
2021/01/17 01:49:42;;;;;;;54.97;20.40;;;;;;;-1.53;100.00;96194.06;5057559;28;20217;-71
2021/01/17 01:52:13;;;;;;;53.10;19.87;;;;;;;-1.67;100.00;96195.03;5058203;28;20581;-72
2021/01/17 01:54:39;;;;;;;51.63;18.77;;;;;;;-1.61;100.00;96188.59;5057585;28;21350;-71
2021/01/17 01:57:06;;;;;;;53.30;20.10;;;;;;;-1.58;100.00;96188.38;5057002;28;20200;-72
2021/01/17 01:59:33;;;;;;;46.27;18.40;;;;;;;-1.54;100.00;96184.66;5057603;28;20204;-72
2021/01/17 02:01:59;;;;;;;48.87;19.20;;;;;;;-1.47;100.00;96180.72;5057780;28;20209;-72
2021/01/17 02:04:25;;;;;;;44.23;17.00;;;;;;;-1.55;100.00;96180.44;5057240;28;20201;-71
2021/01/17 02:07:10;;;;;;;47.17;18.67;;;;;;;-1.47;100.00;96176.38;5055975;28;20281;-72
2021/01/17 02:09:36;;;;;;;50.07;18.00;;;;;;;-1.45;100.00;96177.09;5057503;28;20208;-72
2021/01/17 02:12:13;;;;;;;47.63;18.27;;;;;;;-1.44;100.00;96172.75;5057184;28;20310;-71
2021/01/17 02:14:46;;;;;;;46.83;18.07;;;;;;;-1.39;100.00;96160.34;5057403;28;20236;-72
2021/01/17 02:17:14;;;;;;;49.40;19.27;;;;;;;-1.46;100.00;96162.53;5057057;28;20201;-72
2021/01/17 02:20:02;;;;;;;44.57;18.47;;;;;;;-1.39;100.00;96162.94;5057205;28;20263;-71
2021/01/17 02:22:32;;;;;;;48.97;18.47;;;;;;;-1.43;100.00;96156.31;5057551;28;20201;-72
2021/01/17 02:25:04;;;;;;;55.70;20.20;;;;;;;-1.39;100.00;96155.16;5056949;28;20223;-71
2021/01/17 02:27:31;;;;;;;51.23;18.33;;;;;;;-1.30;100.00;96151.94;5056483;28;21164;-72
2021/01/17 02:30:00;;;;;;;46.27;17.77;;;;;;;-1.27;100.00;96151.72;5056731;28;20241;-72
2021/01/17 02:32:29;;;;;;;50.50;19.43;;;;;;;-1.49;100.00;96156.75;5058036;28;20258;-71
2021/01/17 02:34:56;;;;;;;50.83;20.40;;;;;;;-1.38;100.00;96149.09;5056754;28;20228;-72
2021/01/17 02:37:30;;;;;;;49.87;19.30;;;;;;;-1.36;100.00;96147.19;5055861;28;20200;-72
2021/01/17 02:40:04;;;;;;;54.27;19.63;;;;;;;-1.37;100.00;96135.22;5056956;28;20209;-72
2021/01/17 02:42:31;;;;;;;51.17;19.77;;;;;;;-1.52;100.00;96136.31;5057391;28;20209;-71
2021/01/17 02:44:59;;;;;;;52.03;20.27;;;;;;;-1.44;100.00;96136.56;5056339;28;20506;-71
2021/01/17 02:47:25;;;;;;;52.70;19.70;;;;;;;-1.56;100.00;96129.69;5056541;28;20206;-71
2021/01/17 02:49:51;;;;;;;52.00;20.10;;;;;;;-1.40;100.00;96130.25;5056410;28;20212;-71
2021/01/17 02:52:22;;;;;;;50.97;19.10;;;;;;;-1.40;100.00;96125.09;5056623;28;20205;-72
2021/01/17 02:54:48;;;;;;;52.63;18.67;;;;;;;-1.48;100.00;96119.66;5056421;28;20239;-71
2021/01/17 02:57:17;;;;;;;50.20;20.17;;;;;;;-1.39;100.00;96121.59;5056475;28;20208;-71
2021/01/17 02:59:51;;;;;;;53.57;19.73;;;;;;;-1.44;100.00;96115.91;5056189;28;20657;-71
2021/01/17 03:02:21;;;;;;;52.17;19.53;;;;;;;-1.47;100.00;96110.97;5056816;28;20211;-72
2021/01/17 03:04:54;;;;;;;50.77;19.87;;;;;;;-1.46;100.00;96104.88;5055202;28;20204;-72
2021/01/17 03:07:21;;;;;;;53.97;19.43;;;;;;;-1.36;100.00;96098.09;5056149;28;20212;-72
2021/01/17 03:09:47;;;;;;;46.50;18.50;;;;;;;-1.41;100.00;96107.94;5055860;28;20212;-71
2021/01/17 03:12:13;;;;;;;51.27;19.60;;;;;;;-1.44;100.00;96103.84;5056874;28;20207;-72
2021/01/17 03:14:42;;;;;;;55.40;20.87;;;;;;;-1.42;100.00;96112.28;5056615;28;20483;-71
2021/01/17 03:17:08;;;;;;;54.93;21.20;;;;;;;-1.33;100.00;96105.66;5058207;28;20200;-72
2021/01/17 03:19:35;;;;;;;57.23;21.40;;;;;;;-1.23;100.00;96097.13;5063342;28;20208;-72
2021/01/17 03:22:02;;;;;;;57.73;21.87;;;;;;;-1.31;100.00;96104.63;5063163;28;20200;-71
2021/01/17 03:24:28;;;;;;;55.13;21.40;;;;;;;-1.36;100.00;96103.25;5062964;28;20905;-71
2021/01/17 03:26:54;;;;;;;57.20;21.07;;;;;;;-1.23;100.00;96097.94;5061890;28;20250;-71
2021/01/17 03:29:20;;;;;;;60.00;22.53;;;;;;;-1.26;100.00;96096.50;5063152;28;20204;-70
2021/01/17 03:31:47;;;;;;;57.13;21.50;;;;;;;-1.33;100.00;96101.31;5063278;28;20271;-72
2021/01/17 03:34:13;;;;;;;57.70;20.97;;;;;;;-1.33;100.00;96108.25;5063094;28;20211;-71
2021/01/17 03:36:39;;;;;;;54.07;21.17;;;;;;;-1.27;100.00;96110.38;5062582;28;20224;-71
2021/01/17 03:39:06;;;;;;;60.20;21.73;;;;;;;-1.36;100.00;96111.03;5062930;28;20211;-72
2021/01/17 03:41:32;;;;;;;53.70;19.53;;;;;;;-1.26;100.00;96109.44;5062489;28;21087;-72
2021/01/17 03:43:58;;;;;;;52.63;20.33;;;;;;;-1.24;100.00;96107.59;5064113;28;20214;-72
2021/01/17 03:46:27;;;;;;;56.40;20.40;;;;;;;-1.45;100.00;96109.09;5061964;28;20220;-72
2021/01/17 03:48:54;;;;;;;56.37;20.23;;;;;;;-1.46;100.00;96110.03;5062401;28;20204;-72
2021/01/17 03:51:20;;;;;;;50.87;19.70;;;;;;;-1.50;100.00;96104.25;5063436;28;20201;-72
2021/01/17 03:53:46;;;;;;;55.03;20.37;;;;;;;-1.60;100.00;96108.41;5063113;28;20214;-71
2021/01/17 03:56:12;;;;;;;50.87;19.10;;;;;;;-1.56;100.00;96103.88;5061230;28;20220;-70
2021/01/17 03:58:38;;;;;;;52.27;19.47;;;;;;;-1.41;100.00;96100.19;5063253;28;20298;-72
2021/01/17 04:01:04;;;;;;;51.03;19.37;;;;;;;-1.26;100.00;96096.50;5062686;28;20718;-72
2021/01/17 04:03:29;;;;;;;57.90;21.60;;;;;;;-1.25;100.00;96093.81;5062762;28;20222;-70
2021/01/17 04:05:56;;;;;;;49.00;19.03;;;;;;;-1.23;100.00;96096.28;5062048;28;20642;-72
2021/01/17 04:08:22;;;;;;;51.87;19.40;;;;;;;-1.48;100.00;96102.38;5062517;28;20242;-72
2021/01/17 04:10:48;;;;;;;50.10;19.37;;;;;;;-1.52;100.00;96100.94;5062598;28;20205;-72
2021/01/17 04:13:14;;;;;;;51.37;20.37;;;;;;;-1.64;100.00;96112.16;5062693;28;20201;-71
2021/01/17 04:15:40;;;;;;;52.33;20.87;;;;;;;-1.46;100.00;96100.53;5061969;28;20235;-72
2021/01/17 04:18:06;;;;;;;54.20;19.83;;;;;;;-1.42;100.00;96094.19;5062690;28;20229;-72
2021/01/17 04:20:32;;;;;;;53.83;19.40;;;;;;;-1.21;100.00;96095.25;5062019;28;20553;-71
2021/01/17 04:23:01;;;;;;;52.33;20.20;;;;;;;-1.37;100.00;96093.88;5062647;28;20211;-71
2021/01/17 04:25:28;;;;;;;50.57;19.77;;;;;;;-1.38;100.00;96092.22;5061739;28;20235;-71
2021/01/17 04:27:54;;;;;;;51.30;19.43;;;;;;;-1.29;100.00;96096.75;5061815;28;20251;-71
2021/01/17 04:30:21;;;;;;;56.43;20.60;;;;;;;-1.21;100.00;96095.25;5058965;28;20291;-72
2021/01/17 04:32:47;;;;;;;50.43;18.50;;;;;;;-1.12;100.00;96095.41;5059426;28;20235;-71
2021/01/17 04:35:13;;;;;;;48.73;20.37;;;;;;;-1.16;100.00;96093.16;5058570;28;20255;-72
2021/01/17 04:37:39;;;;;;;62.43;20.73;;;;;;;-1.08;100.00;96091.69;5059017;28;21254;-71
2021/01/17 04:40:07;;;;;;;53.73;20.70;;;;;;;-1.16;100.00;96094.00;5059056;28;20202;-72
2021/01/17 04:42:36;;;;;;;54.77;20.20;;;;;;;-1.36;100.00;96093.78;5059359;28;20213;-71
2021/01/17 04:45:07;;;;;;;54.93;19.60;;;;;;;-1.44;100.00;96095.25;5058604;28;20312;-72
2021/01/17 04:47:35;;;;;;;51.67;19.43;;;;;;;-1.37;100.00;96094.69;5059773;28;20208;-72
2021/01/17 04:50:03;;;;;;;51.13;20.57;;;;;;;-1.30;100.00;96098.47;5059015;28;20324;-72
2021/01/17 04:52:34;;;;;;;54.17;19.83;;;;;;;-1.23;100.00;96103.09;5058596;28;20691;-71
2021/01/17 04:55:00;;;;;;;53.80;20.60;;;;;;;-1.09;100.00;96102.94;5059528;28;20221;-71
2021/01/17 04:57:38;;;;;;;54.63;20.43;;;;;;;-1.03;100.00;96105.09;5058421;28;20205;-71
2021/01/17 05:00:07;;;;;;;52.80;20.40;;;;;;;-1.05;100.00;96106.97;5058566;28;20232;-70
2021/01/17 05:02:33;;;;;;;54.50;21.00;;;;;;;-1.08;100.00;96108.97;5059125;28;20204;-71
2021/01/17 05:05:21;;;;;;;51.43;20.13;;;;;;;-1.00;100.00;96115.22;5058640;28;20201;-72
2021/01/17 05:08:01;;;;;;;53.93;19.00;;;;;;;-1.09;100.00;96109.88;5058333;28;20204;-71
2021/01/17 05:10:35;;;;;;;53.63;19.77;;;;;;;-1.11;100.00;96111.75;5058652;28;20210;-72
2021/01/17 05:13:10;;;;;;;55.50;20.50;;;;;;;-1.05;100.00;96113.91;5058200;28;20196;-71
2021/01/17 05:15:38;;;;;;;62.87;22.67;;;;;;;-1.11;100.00;96114.31;5057469;28;20264;-71
2021/01/17 05:18:05;;;;;;;55.17;21.10;;;;;;;-1.00;100.00;96119.56;5058850;28;20267;-70
2021/01/17 05:20:31;;;;;;;60.50;22.57;;;;;;;-1.05;100.00;96121.66;5058322;28;21324;-69
2021/01/17 05:22:58;;;;;;;65.33;22.53;;;;;;;-1.13;100.00;96127.38;5058309;28;20234;-71
2021/01/17 05:25:26;;;;;;;66.50;23.10;;;;;;;-1.04;100.00;96121.53;5057865;28;20248;-72
2021/01/17 05:27:53;;;;;;;59.80;21.67;;;;;;;-1.12;100.00;96128.19;5057923;28;21094;-69
2021/01/17 05:30:20;;;;;;;53.43;20.33;;;;;;;-1.10;100.00;96127.13;5058187;28;20201;-70
2021/01/17 05:32:50;;;;;;;63.90;21.93;;;;;;;-0.97;100.00;96130.53;5057671;28;20208;-70
2021/01/17 05:35:18;;;;;;;51.00;19.93;;;;;;;-0.82;100.00;96126.81;5057357;28;20762;-69
2021/01/17 05:37:48;;;;;;;61.93;21.43;;;;;;;-0.96;100.00;96134.72;5057873;28;20208;-72
2021/01/17 05:40:15;;;;;;;59.80;22.40;;;;;;;-1.09;100.00;96143.50;5056982;28;20228;-71
2021/01/17 05:42:42;;;;;;;56.43;20.53;;;;;;;-1.17;100.00;96133.69;5058215;28;20215;-72
2021/01/17 05:45:14;;;;;;;55.50;20.63;;;;;;;-1.11;100.00;96137.59;5057166;28;20212;-72
2021/01/17 05:47:42;;;;;;;58.87;21.83;;;;;;;-1.10;100.00;96144.44;5058101;28;20215;-72
2021/01/17 05:50:12;;;;;;;58.40;21.73;;;;;;;-1.09;100.00;96144.31;5058069;28;20197;-72
2021/01/17 05:52:38;;;;;;;61.00;22.40;;;;;;;-1.07;100.00;96150.22;5057776;28;20208;-72
2021/01/17 05:55:06;;;;;;;56.40;21.80;;;;;;;-1.00;100.00;96151.41;5056491;28;20224;-69
2021/01/17 05:57:33;;;;;;;52.27;20.53;;;;;;;-1.05;100.00;96145.72;5058288;28;20224;-70
2021/01/17 06:00:00;;;;;;;59.10;21.97;;;;;;;-1.05;100.00;96153.50;5056727;28;20603;-73
2021/01/17 06:02:26;;;;;;;60.60;22.00;;;;;;;-1.16;100.00;96150.88;5057148;28;20208;-71
2021/01/17 06:04:57;;;;;;;58.47;22.27;;;;;;;-1.09;100.00;96151.25;5057642;28;20690;-70
2021/01/17 06:07:24;;;;;;;61.70;23.87;;;;;;;-1.01;100.00;96152.34;5057164;28;20239;-70
2021/01/17 06:09:56;;;;;;;62.37;23.53;;;;;;;-1.10;100.00;96155.56;5056973;28;20985;-71
2021/01/17 06:12:29;;;;;;;60.43;23.47;;;;;;;-1.15;100.00;96149.91;5057223;28;20720;-70
2021/01/17 06:15:03;;;;;;;48.97;19.60;;;;;;;-1.31;100.00;96152.88;5057255;28;20270;-71
2021/01/17 06:17:32;;;;;;;52.67;20.40;;;;;;;-1.34;100.00;96155.69;5057258;28;20276;-72
2021/01/17 06:19:59;;;;;;;57.23;21.37;;;;;;;-1.36;100.00;96154.94;5057514;28;20200;-71
2021/01/17 06:22:27;;;;;;;57.63;21.70;;;;;;;-1.35;100.00;96152.28;5057287;28;20227;-71
2021/01/17 06:24:59;;;;;;;58.63;20.93;;;;;;;-1.52;100.00;96156.97;5056387;28;21059;-70
2021/01/17 06:27:26;;;;;;;57.83;20.70;;;;;;;-1.34;100.00;96153.09;5056860;28;20197;-72
2021/01/17 06:29:52;;;;;;;60.63;20.87;;;;;;;-1.37;100.00;96159.31;5056756;28;20208;-71
2021/01/17 06:32:20;;;;;;;56.33;20.77;;;;;;;-1.29;100.00;96161.34;5057037;28;20200;-70
2021/01/17 06:34:48;;;;;;;55.27;20.07;;;;;;;-1.41;100.00;96160.47;5056850;28;20228;-71
2021/01/17 06:37:16;;;;;;;62.63;21.53;;;;;;;-1.45;100.00;96171.09;5056674;28;20206;-72
2021/01/17 06:39:45;;;;;;;65.57;22.23;;;;;;;-1.49;100.00;96167.06;5056685;28;20668;-72
2021/01/17 06:42:13;;;;;;;61.53;22.33;;;;;;;-1.59;100.00;96166.91;5056750;28;20212;-71
2021/01/17 06:44:40;;;;;;;62.00;23.23;;;;;;;-1.62;100.00;96166.28;5057038;28;20321;-71
2021/01/17 06:47:15;;;;;;;75.43;25.60;;;;;;;-1.63;100.00;96159.47;5056195;28;20211;-71
2021/01/17 06:49:41;;;;;;;61.60;23.20;;;;;;;-1.62;100.00;96163.69;5056709;28;20741;-72
2021/01/17 06:52:08;;;;;;;68.30;23.87;;;;;;;-1.63;100.00;96169.78;5055913;28;20197;-72
2021/01/17 06:54:37;;;;;;;72.97;24.43;;;;;;;-1.62;100.00;96174.03;5056756;28;20240;-72
2021/01/17 06:57:04;;;;;;;72.57;26.00;;;;;;;-1.63;100.00;96175.81;5056102;28;20219;-72
2021/01/17 06:59:38;;;;;;;76.20;26.50;;;;;;;-1.65;100.00;96177.66;5056301;28;20200;-72
2021/01/17 07:02:39;;;;;;;76.80;26.70;;;;;;;-1.66;100.00;96180.34;5056364;28;20207;-72
2021/01/17 07:05:46;;;;;;;76.73;27.23;;;;;;;-1.56;100.00;96176.19;5030757;28;20216;-72
2021/01/17 07:08:36;;;;;;;75.90;24.73;;;;;;;-1.52;100.00;96172.47;5034965;28;20199;-70
2021/01/17 07:11:20;;;;;;;67.10;23.87;;;;;;;-1.40;100.00;96175.03;5056756;28;20687;-70
2021/01/17 07:13:48;;;;;;;68.20;23.93;;;;;;;-1.49;100.00;96174.81;5056214;28;20247;-70
2021/01/17 07:16:31;;;;;;;63.47;23.40;;;;;;;-1.48;100.00;96173.91;5055697;28;20227;-72
2021/01/17 07:19:02;;;;;;;66.73;23.20;;;;;;;-1.37;100.00;96179.16;5056474;28;20246;-72
2021/01/17 07:21:34;;;;;;;64.17;22.47;;;;;;;-1.35;100.00;96172.09;5056440;28;20208;-72
2021/01/17 07:24:03;;;;;;;72.77;24.13;;;;;;;-1.37;100.00;96184.34;5056436;28;20250;-72
2021/01/17 07:26:47;;;;;;;71.87;25.07;;;;;;;-1.38;100.00;96183.47;5055608;28;20213;-72
2021/01/17 07:29:16;;;;;;;68.47;24.17;;;;;;;-1.36;100.00;96180.78;5056652;28;20230;-72
2021/01/17 07:31:44;;;;;;;68.07;24.03;;;;;;;-1.36;100.00;96188.53;5056305;28;20212;-71
2021/01/17 07:34:12;;;;;;;68.13;25.50;;;;;;;-1.29;100.00;96190.59;5056766;28;20680;-72
2021/01/17 07:36:38;;;;;;;67.93;25.60;;;;;;;-1.29;100.00;96189.78;5055410;28;20256;-72
2021/01/17 07:39:06;;;;;;;66.03;23.73;;;;;;;-1.25;100.00;96181.69;5055564;28;20204;-71
2021/01/17 07:41:36;;;;;;;64.70;24.30;;;;;;;-1.21;100.00;96193.47;5056304;28;20266;-70
2021/01/17 07:44:03;;;;;;;67.10;23.97;;;;;;;-1.17;100.00;96185.41;5056880;28;20215;-72
2021/01/17 07:46:31;;;;;;;63.83;23.67;;;;;;;-1.18;100.00;96181.16;5055607;28;20227;-72
2021/01/17 07:49:02;;;;;;;60.63;24.43;;;;;;;-1.06;100.00;96182.88;5056052;28;20205;-72
2021/01/17 07:51:28;;;;;;;61.77;24.03;;;;;;;-1.08;100.00;96189.09;5056514;28;20226;-72
2021/01/17 07:53:59;;;;;;;63.80;23.97;;;;;;;-1.06;100.00;96189.81;5055753;28;20403;-72
2021/01/17 07:56:29;;;;;;;66.13;23.97;;;;;;;-0.98;100.00;96190.06;5055512;28;20255;-72
2021/01/17 07:59:01;;;;;;;66.17;23.70;;;;;;;-0.93;100.00;96196.59;5056365;28;20201;-72
2021/01/17 08:01:46;;;;;;;72.40;25.77;;;;;;;-0.91;100.00;96197.28;5056181;28;20208;-72
2021/01/17 08:04:26;;;;;;;79.37;28.47;;;;;;;-1.02;100.00;96194.66;5056535;28;20197;-71
2021/01/17 08:06:57;;;;;;;82.90;29.83;;;;;;;-0.96;100.00;96204.53;5059126;28;20220;-72
2021/01/17 08:09:42;;;;;;;70.80;26.63;;;;;;;-0.96;100.00;96207.13;5059458;28;20999;-72
2021/01/17 08:12:08;;;;;;;68.83;26.37;;;;;;;-1.04;100.00;96204.28;5059668;28;20204;-72
2021/01/17 08:14:36;;;;;;;70.10;26.63;;;;;;;-0.93;100.00;96208.69;5059487;28;20208;-70
2021/01/17 08:17:12;;;;;;;65.83;24.97;;;;;;;-0.96;100.00;96212.31;5058862;28;20226;-72
2021/01/17 08:19:40;;;;;;;55.37;21.17;;;;;;;-1.07;100.00;96216.59;5059186;28;20208;-71
2021/01/17 08:22:44;;;;;;;61.37;22.30;;;;;;;-0.98;100.00;96223.69;5059465;28;20204;-72
2021/01/17 08:25:10;;;;;;;62.87;23.10;;;;;;;-0.84;100.00;96215.78;5058725;28;20688;-72
2021/01/17 08:27:38;;;;;;;62.80;23.37;;;;;;;-0.85;100.00;96211.53;5059353;28;20211;-72
2021/01/17 08:30:19;;;;;;;67.17;24.37;;;;;;;-0.70;100.00;96213.88;5059059;28;20725;-72
2021/01/17 08:32:48;;;;;;;76.03;26.80;;;;;;;-0.61;100.00;96208.84;5059677;28;20204;-72
2021/01/17 08:35:34;;;;;;;70.20;26.37;;;;;;;-0.58;100.00;96213.78;5058500;28;20342;-72
2021/01/17 08:38:15;;;;;;;69.00;26.07;;;;;;;-0.55;100.00;96225.69;5058691;28;20205;-72
2021/01/17 08:40:44;;;;;;;71.57;25.33;;;;;;;-0.62;100.00;96224.50;5059804;28;20200;-72
2021/01/17 08:43:12;;;;;;;60.90;24.17;;;;;;;-0.63;100.00;96228.81;5058366;28;20204;-70
2021/01/17 08:45:40;;;;;;;65.00;23.93;;;;;;;-0.58;100.00;96226.72;5057770;28;20255;-71
2021/01/17 08:48:37;;;;;;;62.03;23.60;;;;;;;-0.62;100.00;96229.66;5059281;28;20261;-72
2021/01/17 08:51:21;;;;;;;62.30;23.83;;;;;;;-0.54;100.00;96237.69;4996564;28;20203;-70
2021/01/17 08:53:47;;;;;;;64.83;21.90;;;;;;;-0.55;100.00;96239.47;5050984;28;20230;-72
2021/01/17 08:56:23;;;;;;;64.50;24.10;;;;;;;-0.66;100.00;96238.59;5057919;28;21133;-70
2021/01/17 08:58:50;;;;;;;66.87;23.77;;;;;;;-0.52;100.00;96235.84;5059321;28;20267;-72
2021/01/17 09:01:17;;;;;;;64.13;24.07;;;;;;;-0.45;100.00;96239.63;5058533;28;20216;-72
2021/01/17 09:03:58;;;;;;;60.40;23.20;;;;;;;-0.53;100.00;96236.78;5058639;28;20227;-70
2021/01/17 09:06:34;;;;;;;63.47;23.83;;;;;;;-0.40;100.00;96235.75;5057808;28;20220;-71
2021/01/17 09:09:14;;;;;;;61.33;23.60;;;;;;;-0.30;100.00;96233.34;5058562;28;20774;-72
2021/01/17 09:11:41;;;;;;;70.27;24.57;;;;;;;-0.19;100.00;96239.38;5058746;28;20220;-69
2021/01/17 09:14:25;;;;;;;60.30;23.43;;;;;;;-0.11;100.00;96250.00;5058302;28;20613;-70
2021/01/17 09:16:54;;;;;;;62.63;23.30;;;;;;;-0.10;100.00;96248.22;5057206;28;20228;-71
2021/01/17 09:19:22;;;;;;;62.90;23.63;;;;;;;-0.18;100.00;96256.53;5058364;28;20204;-70
2021/01/17 09:21:52;;;;;;;60.83;24.13;;;;;;;-0.02;100.00;96257.09;5058263;28;20205;-70
2021/01/17 09:24:21;;;;;;;57.67;23.03;;;;;;;0.00;100.00;96256.03;5058236;28;20220;-72
2021/01/17 09:26:49;;;;;;;61.07;24.17;;;;;;;0.04;100.00;96261.81;5057325;28;20314;-72
2021/01/17 09:29:23;;;;;;;68.00;24.17;;;;;;;0.03;100.00;96265.34;5058304;28;20227;-72
2021/01/17 09:31:52;;;;;;;65.03;24.57;;;;;;;0.04;100.00;96270.41;5057417;28;20200;-69
2021/01/17 09:34:22;;;;;;;65.50;24.37;;;;;;;0.12;100.00;96275.03;5058095;28;20203;-70
2021/01/17 09:36:48;;;;;;;64.10;23.90;;;;;;;0.14;100.00;96268.78;5057097;28;20225;-71
2021/01/17 09:39:27;;;;;;;61.50;23.23;;;;;;;0.25;100.00;96275.75;5057989;28;20230;-72
2021/01/17 09:41:53;;;;;;;67.13;25.20;;;;;;;0.29;100.00;96278.00;5057535;28;21153;-70
2021/01/17 09:44:19;;;;;;;63.03;24.03;;;;;;;0.27;100.00;96284.25;5058311;28;20606;-72
2021/01/17 09:46:45;;;;;;;63.07;24.50;;;;;;;0.35;100.00;96287.09;5057066;28;20262;-71
2021/01/17 09:49:12;;;;;;;63.90;24.43;;;;;;;0.53;100.00;96286.53;5057525;28;21180;-70
2021/01/17 09:51:38;;;;;;;66.43;24.77;;;;;;;0.47;100.00;96294.78;5058251;28;20213;-70
2021/01/17 09:54:04;;;;;;;65.50;24.90;;;;;;;0.43;100.00;96292.53;5057346;28;20565;-71
2021/01/17 09:56:30;;;;;;;66.70;24.57;;;;;;;0.53;100.00;96296.91;5056634;28;20227;-72
2021/01/17 09:58:56;;;;;;;59.37;23.50;;;;;;;0.58;100.00;96286.19;5058208;28;20222;-71
2021/01/17 10:01:22;;;;;;;58.87;22.97;;;;;;;0.47;100.00;96292.19;5057089;28;20199;-72
2021/01/17 10:03:49;;;;;;;66.10;23.37;;;;;;;0.29;100.00;96293.53;5057502;28;20202;-70
2021/01/17 10:06:17;;;;;;;62.43;24.30;;;;;;;0.32;100.00;96282.97;5056877;28;20277;-71
2021/01/17 10:08:44;;;;;;;67.17;25.30;;;;;;;0.41;100.00;96290.06;5058015;28;20217;-72
2021/01/17 10:11:10;;;;;;;65.50;24.00;;;;;;;0.53;100.00;96286.53;5057254;28;20199;-70
2021/01/17 10:13:35;;;;;;;63.00;23.87;;;;;;;0.42;100.00;96289.13;5057367;28;20217;-72
2021/01/17 10:16:02;;;;;;;63.70;24.40;;;;;;;0.65;100.00;96283.03;5056709;28;21512;-72
2021/01/17 10:18:28;;;;;;;62.80;23.30;;;;;;;0.65;100.00;96289.03;5057153;28;20215;-71
2021/01/17 10:20:55;;;;;;;58.03;23.13;;;;;;;0.73;100.00;96289.25;5056540;28;20214;-71
2021/01/17 10:23:29;;;;;;;61.83;22.47;;;;;;;0.68;100.00;96285.38;5057115;28;20674;-70
2021/01/17 10:25:55;;;;;;;59.70;24.33;;;;;;;0.88;100.00;96289.84;5055765;28;20254;-71
2021/01/17 10:28:25;;;;;;;61.27;22.53;;;;;;;1.00;100.00;96291.53;5056315;28;20666;-72
2021/01/17 10:30:57;;;;;;;49.63;20.13;;;;;;;0.88;100.00;96295.88;5056449;28;20236;-71
2021/01/17 10:33:23;;;;;;;54.17;21.83;;;;;;;0.94;100.00;96292.81;5056885;28;20264;-72
2021/01/17 10:35:50;;;;;;;69.63;25.40;;;;;;;0.76;100.00;96288.22;5055851;28;20229;-72
2021/01/17 10:38:18;;;;;;;47.13;19.57;;;;;;;0.46;100.00;96295.72;5056905;28;20210;-72
2021/01/17 10:40:47;;;;;;;53.53;19.20;;;;;;;0.46;100.00;96294.88;5057114;28;20228;-70
2021/01/17 10:43:22;;;;;;;56.40;21.80;;;;;;;0.37;100.00;96291.22;5056721;28;20242;-71
2021/01/17 10:45:54;;;;;;;55.30;20.20;;;;;;;0.59;100.00;96294.66;5055851;28;20231;-72
2021/01/17 10:48:20;;;;;;;55.53;21.43;;;;;;;0.79;100.00;96304.38;5057073;28;20216;-72
2021/01/17 10:50:52;;;;;;;56.43;21.67;;;;;;;0.70;100.00;96296.44;5057237;28;20702;-72
2021/01/17 10:53:20;;;;;;;73.23;25.70;;;;;;;0.62;100.00;96296.19;5057211;28;20204;-71
2021/01/17 10:55:51;;;;;;;57.17;21.50;;;;;;;0.76;100.00;96294.25;5056162;28;20235;-71
2021/01/17 10:58:22;;;;;;;77.37;27.07;;;;;;;0.78;100.00;96299.31;5056385;28;20240;-71
2021/01/17 11:00:52;;;;;;;109.20;32.67;;;;;;;0.78;100.00;96296.72;5056376;28;20208;-71
2021/01/17 11:03:29;;;;;;;65.43;25.17;;;;;;;0.78;100.00;96301.91;5056630;28;20199;-71
2021/01/17 11:06:05;;;;;;;60.73;23.60;;;;;;;1.20;100.00;96300.22;5055465;28;20232;-70
2021/01/17 11:08:34;;;;;;;71.20;27.27;;;;;;;1.30;100.00;96298.56;5056536;28;20219;-71
2021/01/17 11:11:01;;;;;;;53.63;21.07;;;;;;;1.41;100.00;96295.13;5056902;28;20278;-70
2021/01/17 11:13:27;;;;;;;52.07;21.70;;;;;;;1.45;100.00;96299.13;5056586;28;20204;-72
2021/01/17 11:15:53;;;;;;;56.60;22.13;;;;;;;1.53;100.00;96296.78;5055133;28;20594;-71
2021/01/17 11:18:20;;;;;;;51.70;20.57;;;;;;;1.38;100.00;96308.34;5057148;28;20290;-72
2021/01/17 11:20:47;;;;;;;55.37;20.43;;;;;;;1.47;100.00;96297.25;5057137;28;20215;-72